Metar-ilmailun säätiedot     EFOU Oulu Airport
Lämpötila
3°C Lämpötila
1°C Kastepiste
87% Kosteus



Tuuli
3 M/S
7 MPH
11 KM/H
6 KTS



140°
KA
Nykyiset olosuhteet

Selkeää Selkeää
Paine 1007.92 (hPa) - 29.76 (inHg)
Näkyvyys 6.2 (maili) - 10 (km)
Lentokenttä
Lentokentän koodi EFOU

Sijainti: Oulu Airport
Etäisyys:: 83 (km)

Metar:
EFOU 011650Z AUTO 14006KT CAVOK 03/01 Q1008

Aika: 01-10-2022 19:50 EEST